Time;durP1;ratioP1;P1;durP2;ratioP2;P2;SDS_P1;SDS_P2;PMS_P1;PMS_P2;Temp;Humidity;BMP_temperature;BMP_pressure;BME280_temperature;BME280_humidity;BME280_pressure;Samples;Min_cycle;Max_cycle;Signal;HPM_P1;HPM_P2
2023/12/22 00:02:25;;;;;;;6.70;1.70;;;;;;;3.96;62.68;95999.88;104863;1270;61079;-25
2023/12/22 00:04:53;;;;;;;2.40;1.90;;;;;;;3.94;62.83;96002.38;104886;1275;71202;-25
2023/12/22 00:07:21;;;;;;;1.80;1.70;;;;;;;3.91;63.41;95996.84;104865;1270;74393;-26
2023/12/22 00:17:25;;;;;;;3.20;2.00;;;;;;;4.45;63.09;95978.97;102650;1295;600230;-27
2023/12/22 00:19:55;;;;;;;4.00;2.40;;;;;;;4.09;64.68;95978.77;104993;1265;61241;-28
2023/12/22 00:22:23;;;;;;;3.10;2.10;;;;;;;4.16;65.16;95975.86;104884;1267;61148;-28
2023/12/22 00:24:50;;;;;;;3.10;1.90;;;;;;;3.96;66.40;95965.56;104815;1266;72701;-27
2023/12/22 00:27:18;;;;;;;5.40;2.50;;;;;;;3.95;66.70;95956.41;104870;1271;75172;-27
2023/12/22 00:29:46;;;;;;;2.50;1.80;;;;;;;3.94;67.19;95946.31;104905;1269;71659;-28
2023/12/22 00:32:13;;;;;;;2.20;1.40;;;;;;;4.27;66.35;95944.81;104984;1269;191998;-27
2023/12/22 00:34:41;;;;;;;2.10;1.50;;;;;;;4.53;65.47;95947.42;104936;1269;61162;-28
2023/12/22 00:37:08;;;;;;;3.10;2.10;;;;;;;4.35;66.34;95945.06;105142;1266;72210;-27
2023/12/22 00:39:36;;;;;;;3.10;1.80;;;;;;;4.19;66.95;95941.23;104836;1266;74315;-27
2023/12/22 00:42:04;;;;;;;2.70;1.70;;;;;;;4.02;67.80;95929.94;104864;1269;72667;-27
2023/12/22 00:52:10;;;;;;;2.70;1.40;;;;;;;4.57;67.51;95894.79;102780;1289;600052;-25
2023/12/22 00:54:38;;;;;;;1.60;1.20;;;;;;;4.44;68.15;95886.14;105046;1269;61148;-25
2023/12/22 00:57:05;;;;;;;13.80;1.70;;;;;;;4.29;67.81;95887.46;105076;1264;61189;-27
2023/12/22 01:07:30;;;;;;;3.20;1.80;;;;;;;4.67;66.02;95883.65;102484;1293;615034;-25
2023/12/22 01:10:01;;;;;;;1.80;1.20;;;;;;;4.60;65.58;95883.85;105083;1267;61067;-26
2023/12/22 01:12:28;;;;;;;2.50;1.60;;;;;;;4.28;66.43;95886.98;105086;1267;61119;-26
2023/12/22 01:14:56;;;;;;;1.80;1.40;;;;;;;4.25;67.11;95893.20;105567;1258;72582;-26
2023/12/22 01:17:23;;;;;;;2.20;1.70;;;;;;;4.10;67.70;95887.15;105386;1257;73334;-26
2023/12/22 01:19:51;;;;;;;3.10;1.90;;;;;;;4.05;68.33;95887.02;105473;1257;187699;-26
2023/12/22 01:22:18;;;;;;;1.60;1.10;;;;;;;4.43;67.91;95873.11;105629;1257;61083;-26
2023/12/22 01:24:45;;;;;;;3.30;1.20;;;;;;;4.57;67.83;95869.18;105624;1260;61557;-27
2023/12/22 01:27:12;;;;;;;1.90;1.30;;;;;;;4.41;68.74;95864.19;105639;1258;71879;-27
2023/12/22 01:29:39;;;;;;;2.50;1.20;;;;;;;4.20;70.45;95850.96;105595;1258;74237;-28
2023/12/22 01:32:06;;;;;;;4.40;1.80;;;;;;;4.09;71.96;95847.50;105596;1259;72718;-28
2023/12/22 01:34:33;;;;;;;2.30;1.30;;;;;;;4.27;71.29;95840.77;105629;1256;61426;-29
2023/12/22 01:37:00;;;;;;;2.30;1.50;;;;;;;4.62;70.01;95833.75;105637;1260;61116;-29
2023/12/22 01:39:26;;;;;;;2.70;1.40;;;;;;;4.60;69.64;95833.48;105589;1257;71901;-29
2023/12/22 01:41:53;;;;;;;1.90;1.30;;;;;;;4.46;70.37;95839.60;105701;1258;74158;-30
2023/12/22 01:44:20;;;;;;;0.90;0.90;;;;;;;4.28;71.39;95828.48;105587;1257;72614;-29
2023/12/22 01:46:47;;;;;;;2.20;1.30;;;;;;;4.16;71.81;95818.10;105597;1257;61260;-27
2023/12/22 01:49:14;;;;;;;2.60;1.60;;;;;;;4.48;70.78;95814.80;105584;1256;61107;-25
2023/12/22 01:51:41;;;;;;;1.30;1.20;;;;;;;4.71;69.48;95798.99;105630;1258;73561;-26
2023/12/22 01:54:08;;;;;;;3.70;1.30;;;;;;;4.67;69.47;95801.09;105668;1257;74744;-26
2023/12/22 01:56:34;;;;;;;1.40;1.00;;;;;;;4.51;69.45;95795.66;105648;1258;72567;-26
2023/12/22 01:59:01;;;;;;;1.80;1.20;;;;;;;4.40;69.78;95800.11;105501;1257;61150;-25
2023/12/22 02:01:28;;;;;;;1.00;0.80;;;;;;;4.28;70.38;95805.64;105561;1263;61080;-26
2023/12/22 02:03:56;;;;;;;1.80;1.20;;;;;;;4.71;68.56;95803.79;105645;1258;72785;-25
2023/12/22 02:06:23;;;;;;;2.50;1.20;;;;;;;4.86;67.68;95807.94;105618;1257;74346;-26
2023/12/22 02:08:49;;;;;;;0.90;0.80;;;;;;;4.69;67.47;95811.02;105644;1258;72456;-26
2023/12/22 02:11:16;;;;;;;1.90;1.40;;;;;;;4.58;68.44;95801.79;105569;1256;61064;-25
2023/12/22 02:13:43;;;;;;;1.30;1.00;;;;;;;4.48;69.62;95800.88;105645;1257;61067;-25
2023/12/22 02:16:20;;;;;;;1.20;0.80;;;;;;;4.25;70.63;95797.70;105594;1257;73003;-26
2023/12/22 02:18:49;;;;;;;2.00;1.30;;;;;;;4.73;70.29;95799.04;105442;1260;74285;-26
2023/12/22 02:21:16;;;;;;;0.90;0.80;;;;;;;4.62;70.34;95789.15;105567;1258;72626;-26
2023/12/22 02:23:44;;;;;;;1.30;1.10;;;;;;;4.64;70.91;95795.60;105566;1260;61096;-26
2023/12/22 02:26:34;;;;;;;1.10;1.00;;;;;;;4.43;71.65;95785.35;105627;1260;61176;-26
2023/12/22 02:29:01;;;;;;;1.50;1.20;;;;;;;4.02;74.35;95780.02;105558;1258;72881;-24
2023/12/22 02:31:44;;;;;;;1.90;1.30;;;;;;;4.21;74.75;95790.56;105621;1258;74276;-24
2023/12/22 02:34:14;;;;;;;4.10;1.40;;;;;;;4.36;74.53;95786.11;105610;1255;72461;-24
2023/12/22 02:36:40;;;;;;;1.20;0.90;;;;;;;4.32;74.76;95771.41;105546;1261;60998;-24
2023/12/22 02:39:08;;;;;;;1.90;1.20;;;;;;;3.86;77.23;95778.66;105597;1263;61158;-24
2023/12/22 02:41:35;;;;;;;2.70;1.60;;;;;;;3.85;77.94;95779.28;105657;1257;72824;-25
2023/12/22 02:44:02;;;;;;;1.80;1.40;;;;;;;4.15;76.48;95768.36;105587;1260;74298;-24
2023/12/22 02:46:29;;;;;;;0.90;0.70;;;;;;;4.02;76.90;95763.38;105592;1258;72651;-24
2023/12/22 02:48:56;;;;;;;2.40;1.60;;;;;;;3.98;77.72;95771.69;105530;1257;61131;-25
2023/12/22 02:51:23;;;;;;;2.10;1.30;;;;;;;3.72;78.66;95771.02;105412;1258;61257;-24
2023/12/22 02:53:49;;;;;;;1.10;1.00;;;;;;;3.59;80.17;95775.09;105449;1260;72991;-24
2023/12/22 02:56:16;;;;;;;1.60;1.00;;;;;;;3.95;78.93;95771.02;105565;1257;73636;-24
2023/12/22 02:58:43;;;;;;;2.30;0.90;;;;;;;3.91;78.76;95763.71;105464;1260;72482;-24
2023/12/22 03:05:30;;;;;;;1.60;1.00;;;;;;;3.60;81.07;95759.80;105546;1260;61099;-24
2023/12/22 03:07:57;;;;;;;1.10;0.70;;;;;;;3.97;79.77;95760.71;105313;1257;72903;-24
2023/12/22 03:10:24;;;;;;;1.30;0.90;;;;;;;3.84;80.06;95758.27;105317;1258;74392;-24
2023/12/22 03:12:51;;;;;;;1.30;0.80;;;;;;;3.71;80.80;95746.77;105626;1257;72639;-24
2023/12/22 03:15:18;;;;;;;2.60;0.80;;;;;;;3.59;81.67;95747.13;105645;1258;61064;-24
2023/12/22 03:17:45;;;;;;;1.30;1.00;;;;;;;3.89;80.97;95742.77;105527;1260;61162;-24
2023/12/22 03:20:12;;;;;;;1.90;1.20;;;;;;;4.10;79.79;95735.96;105603;1257;72580;-24
2023/12/22 03:22:38;;;;;;;1.50;0.90;;;;;;;4.07;79.85;95736.08;105589;1260;74266;-24
2023/12/22 03:25:06;;;;;;;2.20;1.00;;;;;;;3.92;80.49;95743.32;105564;1258;73301;-24
2023/12/22 03:27:33;;;;;;;1.20;0.90;;;;;;;3.95;80.81;95742.16;105626;1260;61036;-24
2023/12/22 03:30:01;;;;;;;2.20;1.10;;;;;;;4.29;79.27;95734.77;105600;1261;61103;-24
2023/12/22 03:32:29;;;;;;;1.70;1.10;;;;;;;4.23;79.30;95738.51;105634;1257;72952;-24
2023/12/22 03:34:56;;;;;;;0.90;0.80;;;;;;;4.24;79.22;95737.40;105691;1257;74910;-25
2023/12/22 03:37:22;;;;;;;1.30;0.90;;;;;;;3.94;80.67;95737.10;105592;1260;72675;-24
2023/12/22 03:39:49;;;;;;;0.50;0.50;;;;;;;3.87;81.39;95741.34;105509;1258;61101;-24
2023/12/22 03:42:16;;;;;;;1.20;1.00;;;;;;;4.31;79.56;95739.54;105307;1260;61106;-24
2023/12/22 03:44:43;;;;;;;0.80;0.60;;;;;;;4.33;79.24;95732.64;105316;1260;72981;-24
2023/12/22 03:47:10;;;;;;;1.00;0.80;;;;;;;4.29;79.39;95728.98;105277;1257;74059;-24
2023/12/22 03:49:36;;;;;;;2.10;1.10;;;;;;;3.95;80.76;95728.48;105501;1258;72498;-24
2023/12/22 03:52:03;;;;;;;1.10;0.90;;;;;;;4.17;80.34;95725.09;105577;1257;61087;-24
2023/12/22 03:54:30;;;;;;;0.70;0.50;;;;;;;4.55;78.84;95728.98;105395;1260;61059;-25
2023/12/22 03:56:57;;;;;;;1.70;0.80;;;;;;;4.49;78.49;95729.89;105510;1258;72594;-24
2023/12/22 03:59:24;;;;;;;0.70;0.60;;;;;;;4.38;78.94;95729.33;105602;1257;73382;-25
2023/12/22 04:01:55;;;;;;;0.80;0.60;;;;;;;4.01;80.36;95724.05;105618;1258;72474;-24
2023/12/22 04:04:22;;;;;;;1.10;0.70;;;;;;;4.23;80.16;95730.61;105584;1257;61060;-23
2023/12/22 04:06:50;;;;;;;0.80;0.70;;;;;;;4.66;78.47;95728.90;105424;1257;61061;-24
2023/12/22 04:09:17;;;;;;;1.60;0.90;;;;;;;4.58;77.94;95723.17;105577;1260;72997;-24
2023/12/22 04:11:44;;;;;;;1.00;0.70;;;;;;;4.53;78.28;95720.45;105628;1258;74919;-24
2023/12/22 04:14:10;;;;;;;1.10;0.90;;;;;;;4.29;78.96;95716.06;105579;1257;72458;-24
2023/12/22 04:16:38;;;;;;;0.70;0.60;;;;;;;4.23;79.52;95704.70;105465;1257;61057;-24
2023/12/22 04:19:05;;;;;;;1.30;0.70;;;;;;;4.52;78.14;95699.95;105396;1263;61185;-24
2023/12/22 04:21:38;;;;;;;3.00;1.50;;;;;;;4.58;77.78;95694.41;105301;1260;71804;-24
2023/12/22 04:24:05;;;;;;;1.80;0.90;;;;;;;4.29;77.80;95686.67;105571;1260;73040;-24
2023/12/22 04:26:32;;;;;;;1.20;0.90;;;;;;;4.20;78.57;95688.86;105496;1260;72448;-24
2023/12/22 04:28:59;;;;;;;1.40;0.80;;;;;;;4.07;79.30;95684.09;105548;1259;61045;-23
2023/12/22 04:31:26;;;;;;;2.00;1.30;;;;;;;4.30;78.36;95681.73;105612;1260;61170;-24
2023/12/22 04:33:53;;;;;;;1.40;0.80;;;;;;;4.47;78.02;95687.61;105616;1258;73184;-24
2023/12/22 04:36:20;;;;;;;1.80;1.10;;;;;;;4.43;78.36;95689.46;105439;1260;74269;-24
2023/12/22 04:38:47;;;;;;;1.10;1.00;;;;;;;4.09;79.72;95689.84;105278;1260;72576;-24
2023/12/22 04:41:14;;;;;;;1.80;1.10;;;;;;;4.18;80.04;95696.40;105625;1257;61077;-23
2023/12/22 04:43:40;;;;;;;1.30;0.90;;;;;;;4.67;78.04;95694.36;105353;1260;61096;-24
2023/12/22 04:46:07;;;;;;;0.80;0.80;;;;;;;4.64;77.37;95687.32;105603;1260;72996;-24
2023/12/22 04:48:34;;;;;;;1.80;1.40;;;;;;;4.34;78.48;95683.11;105533;1261;74763;-24
2023/12/22 04:51:02;;;;;;;3.80;1.10;;;;;;;4.24;78.52;95690.36;105632;1261;72692;-24
2023/12/22 04:53:29;;;;;;;1.20;0.80;;;;;;;4.03;80.18;95691.05;105527;1257;61181;-24
2023/12/22 04:55:56;;;;;;;0.60;0.60;;;;;;;4.39;78.95;95688.17;105497;1263;61090;-24
2023/12/22 04:58:23;;;;;;;0.70;0.70;;;;;;;4.47;78.78;95684.23;105609;1260;73089;-24
2023/12/22 05:00:51;;;;;;;2.20;1.40;;;;;;;4.35;79.07;95689.29;105576;1264;74757;-24
2023/12/22 05:03:18;;;;;;;0.80;0.60;;;;;;;4.05;80.29;95688.38;105708;1262;72443;-25
2023/12/22 05:05:45;;;;;;;2.50;1.30;;;;;;;3.93;81.36;95690.02;105616;1258;61146;-24
2023/12/22 05:08:12;;;;;;;1.20;0.80;;;;;;;4.29;80.06;95693.09;105614;1261;61105;-24
2023/12/22 05:10:39;;;;;;;2.00;1.40;;;;;;;4.18;79.91;95687.84;105635;1257;72826;-24
2023/12/22 05:13:06;;;;;;;0.60;0.60;;;;;;;4.19;80.26;95684.04;105412;1257;74187;-24
2023/12/22 05:15:33;;;;;;;1.10;0.80;;;;;;;4.09;80.68;95688.80;105530;1257;72604;-24
2023/12/22 05:18:00;;;;;;;1.10;0.50;;;;;;;4.06;80.80;95686.73;105599;1258;61148;-24
2023/12/22 05:20:27;;;;;;;1.40;1.00;;;;;;;4.49;79.43;95683.95;105623;1268;61163;-24
2023/12/22 05:22:54;;;;;;;1.00;0.80;;;;;;;4.63;78.30;95680.39;105504;1260;73624;-24
2023/12/22 05:25:21;;;;;;;1.20;1.00;;;;;;;4.47;78.71;95683.48;105580;1260;74171;-24
2023/12/22 05:27:47;;;;;;;1.00;0.90;;;;;;;4.06;80.17;95688.94;105316;1257;73139;-25
2023/12/22 05:30:15;;;;;;;1.50;1.10;;;;;;;4.10;81.09;95688.27;105261;1260;61175;-24
2023/12/22 05:32:41;;;;;;;1.20;0.90;;;;;;;4.63;79.04;95683.13;105448;1269;61166;-24
2023/12/22 05:35:10;;;;;;;1.40;1.00;;;;;;;4.75;78.07;95687.36;105633;1260;74349;-24
2023/12/22 05:37:37;;;;;;;1.20;1.00;;;;;;;4.49;78.91;95686.28;105503;1260;74233;-24
2023/12/22 05:40:06;;;;;;;2.80;1.50;;;;;;;3.99;81.02;95682.05;105166;1264;73220;-24
2023/12/22 05:42:33;;;;;;;0.80;0.80;;;;;;;3.89;82.21;95673.63;105507;1260;61112;-24
2023/12/22 05:45:00;;;;;;;2.40;1.30;;;;;;;4.40;80.22;95681.43;105578;1261;61156;-24
2023/12/22 05:47:27;;;;;;;0.70;0.70;;;;;;;4.47;79.64;95672.50;105528;1257;73708;-24
2023/12/22 05:49:54;;;;;;;1.10;0.90;;;;;;;4.20;80.50;95671.19;105487;1260;74130;-24
2023/12/22 05:52:21;;;;;;;4.60;1.30;;;;;;;4.01;81.65;95677.55;105481;1260;72617;-24
2023/12/22 05:54:48;;;;;;;1.10;0.80;;;;;;;4.17;81.90;95681.13;105356;1257;61078;-24
2023/12/22 05:57:15;;;;;;;1.90;1.00;;;;;;;4.48;80.43;95687.39;105292;1259;61060;-24
2023/12/22 05:59:42;;;;;;;0.70;0.70;;;;;;;4.57;79.64;95679.64;105603;1260;74296;-24
2023/12/22 06:02:09;;;;;;;1.30;1.00;;;;;;;4.49;79.90;95680.70;105618;1260;74353;-24
2023/12/22 06:04:36;;;;;;;1.20;1.10;;;;;;;4.13;81.24;95681.91;105621;1257;73268;-24
2023/12/22 06:07:03;;;;;;;0.90;0.80;;;;;;;4.31;81.29;95683.73;105581;1264;61134;-24
2023/12/22 06:09:30;;;;;;;1.40;1.00;;;;;;;4.73;79.86;95689.95;105598;1260;61127;-24
2023/12/22 06:11:57;;;;;;;0.90;0.70;;;;;;;4.69;79.41;95686.73;105526;1260;73930;-24
2023/12/22 06:14:24;;;;;;;1.00;0.90;;;;;;;4.46;80.06;95690.88;105484;1263;74660;-24
2023/12/22 06:16:53;;;;;;;1.10;0.80;;;;;;;4.19;81.15;95685.23;105411;1263;72679;-23
2023/12/22 06:19:21;;;;;;;1.30;0.90;;;;;;;4.32;80.96;95690.85;105446;1260;61105;-24
2023/12/22 06:21:49;;;;;;;0.70;0.70;;;;;;;4.75;79.75;95694.02;105500;1262;61111;-24
2023/12/22 06:24:16;;;;;;;1.10;1.00;;;;;;;4.57;79.75;95696.00;105425;1260;73786;-24
2023/12/22 06:26:43;;;;;;;1.50;0.70;;;;;;;4.31;80.44;95695.34;105568;1260;74270;-24
2023/12/22 06:29:10;;;;;;;0.70;0.50;;;;;;;4.14;81.13;95692.05;105514;1263;72748;-24
2023/12/22 06:31:37;;;;;;;1.10;0.90;;;;;;;4.17;81.79;95696.17;105561;1257;61253;-24
2023/12/22 06:34:05;;;;;;;0.70;0.70;;;;;;;4.73;79.83;95703.86;105562;1259;61713;-24
2023/12/22 06:36:32;;;;;;;1.00;0.70;;;;;;;4.75;79.05;95693.59;105573;1259;73827;-24
2023/12/22 06:38:59;;;;;;;0.80;0.70;;;;;;;4.58;79.27;95695.86;105498;1260;74092;-24
2023/12/22 06:41:29;;;;;;;2.20;1.10;;;;;;;4.37;80.09;95707.80;105322;1257;72733;-24
2023/12/22 06:44:01;;;;;;;2.10;0.70;;;;;;;4.22;80.62;95705.86;105234;1262;61112;-24
2023/12/22 06:46:30;;;;;;;0.50;0.50;;;;;;;4.44;80.52;95710.02;105584;1261;61137;-24
2023/12/22 06:48:57;;;;;;;0.50;0.40;;;;;;;4.81;79.13;95715.39;105615;1261;73587;-23
2023/12/22 06:51:34;;;;;;;1.20;0.80;;;;;;;4.81;78.56;95713.97;105655;1260;74332;-24
2023/12/22 06:54:02;;;;;;;1.00;0.70;;;;;;;4.60;78.85;95708.55;105533;1263;73211;-24
2023/12/22 06:56:31;;;;;;;1.40;0.80;;;;;;;4.28;79.94;95708.44;105587;1260;61188;-24
2023/12/22 06:58:58;;;;;;;0.70;0.60;;;;;;;4.17;80.56;95702.77;105515;1262;61833;-24
2023/12/22 07:01:31;;;;;;;1.60;0.60;;;;;;;4.40;80.43;95706.46;105541;1257;73833;-24
2023/12/22 07:04:00;;;;;;;0.60;0.40;;;;;;;4.72;79.21;95704.45;105327;1263;73433;-25
2023/12/22 07:06:29;;;;;;;1.50;0.80;;;;;;;4.65;79.05;95703.45;105591;1260;72535;-24
2023/12/22 07:09:19;;;;;;;1.40;0.50;;;;;;;4.52;79.19;95702.73;105642;1260;61132;-24
2023/12/22 07:11:47;;;;;;;0.70;0.60;;;;;;;4.24;80.19;95714.51;105207;1260;61138;-24
2023/12/22 07:14:15;;;;;;;0.70;0.60;;;;;;;4.10;81.29;95717.20;105317;1258;72914;-23
2023/12/22 07:16:42;;;;;;;0.80;0.50;;;;;;;4.64;79.57;95726.05;105347;1263;74179;-24
2023/12/22 07:19:09;;;;;;;0.60;0.60;;;;;;;4.70;79.17;95731.92;105302;1258;71356;-23
2023/12/22 07:21:36;;;;;;;0.80;0.40;;;;;;;4.67;78.78;95729.09;105244;1261;61099;-24
2023/12/22 07:24:04;;;;;;;1.00;0.80;;;;;;;4.29;79.82;95726.85;105415;1260;61146;-24
2023/12/22 07:26:31;;;;;;;1.30;0.70;;;;;;;4.17;80.67;95729.21;105621;1258;73893;-23
2023/12/22 07:28:58;;;;;;;0.30;0.30;;;;;;;4.24;81.02;95729.61;105559;1261;74275;-23
2023/12/22 07:31:25;;;;;;;0.40;0.40;;;;;;;4.68;79.59;95726.13;105560;1260;72421;-24
2023/12/22 07:33:53;;;;;;;0.50;0.50;;;;;;;4.86;78.79;95716.74;105411;1270;61156;-23
2023/12/22 07:36:21;;;;;;;0.80;0.60;;;;;;;4.78;78.74;95714.86;105331;1261;61134;-23
2023/12/22 07:38:49;;;;;;;0.90;0.50;;;;;;;4.55;79.46;95712.50;105256;1261;73889;-24
2023/12/22 07:41:16;;;;;;;0.70;0.50;;;;;;;4.39;80.17;95718.08;105281;1267;74334;-23
2023/12/22 07:43:45;;;;;;;0.40;0.40;;;;;;;4.30;80.91;95710.85;105324;1260;72638;-24
2023/12/22 07:46:19;;;;;;;1.00;0.50;;;;;;;4.71;79.56;95714.60;105521;1258;61134;-23
2023/12/22 07:48:46;;;;;;;1.00;0.60;;;;;;;4.74;78.91;95715.23;105286;1257;61160;-23
2023/12/22 07:51:13;;;;;;;0.60;0.60;;;;;;;4.75;78.96;95716.22;105544;1261;73676;-23
2023/12/22 07:53:40;;;;;;;0.60;0.60;;;;;;;4.51;79.43;95715.54;105359;1258;74219;-23
2023/12/22 07:56:10;;;;;;;0.50;0.40;;;;;;;4.29;80.22;95717.81;105349;1258;72764;-24
2023/12/22 07:58:38;;;;;;;0.40;0.40;;;;;;;4.54;80.12;95720.27;105601;1261;61186;-23
2023/12/22 08:01:05;;;;;;;10.30;2.20;;;;;;;4.94;78.75;95721.48;105646;1260;61105;-23
2023/12/22 08:03:33;;;;;;;0.60;0.50;;;;;;;5.00;77.90;95714.48;105609;1257;73868;-23
2023/12/22 08:06:00;;;;;;;0.50;0.50;;;;;;;4.76;78.14;95705.39;105607;1261;74553;-23
2023/12/22 08:08:27;;;;;;;0.60;0.50;;;;;;;4.59;79.01;95708.55;105556;1257;73294;-23
2023/12/22 08:10:55;;;;;;;0.50;0.50;;;;;;;4.31;80.10;95712.23;105469;1258;61059;-24
2023/12/22 08:13:22;;;;;;;1.50;0.50;;;;;;;4.28;80.94;95711.40;105413;1260;61163;-23
2023/12/22 08:15:49;;;;;;;0.70;0.40;;;;;;;4.83;78.96;95716.14;105607;1257;73858;-23
2023/12/22 08:18:16;;;;;;;0.80;0.70;;;;;;;4.78;78.76;95720.19;105505;1257;74362;-24
2023/12/22 08:20:43;;;;;;;0.50;0.50;;;;;;;4.67;78.67;95718.27;105562;1258;72665;-23
2023/12/22 08:23:13;;;;;;;1.30;0.60;;;;;;;4.30;80.33;95722.35;105585;1257;61061;-24
2023/12/22 08:25:41;;;;;;;1.40;0.60;;;;;;;4.38;80.48;95723.48;105644;1257;61173;-24
2023/12/22 08:28:12;;;;;;;0.60;0.60;;;;;;;4.99;78.79;95724.94;105567;1258;73969;-24
2023/12/22 08:30:39;;;;;;;0.80;0.50;;;;;;;5.02;77.86;95719.09;105440;1260;74330;-23
2023/12/22 08:33:05;;;;;;;1.10;0.50;;;;;;;5.06;77.73;95722.09;105360;1260;72571;-24
2023/12/22 08:35:32;;;;;;;1.80;0.50;;;;;;;4.80;78.64;95721.04;105432;1256;61156;-24
2023/12/22 08:37:59;;;;;;;2.30;0.70;;;;;;;4.47;79.59;95717.84;105411;1261;61189;-25
2023/12/22 08:40:27;;;;;;;0.50;0.40;;;;;;;4.43;80.29;95710.92;105605;1261;74315;-24
2023/12/22 08:42:59;;;;;;;1.30;0.60;;;;;;;4.94;79.05;95716.33;105599;1257;74589;-24
2023/12/22 08:45:28;;;;;;;0.70;0.50;;;;;;;5.27;77.68;95712.55;105323;1261;71397;-24
2023/12/22 08:47:55;;;;;;;1.00;0.50;;;;;;;5.18;77.71;95716.03;105543;1263;61189;-24
2023/12/22 08:50:23;;;;;;;1.20;0.40;;;;;;;5.05;77.85;95711.88;105559;1263;61103;-25
2023/12/22 08:52:49;;;;;;;0.70;0.70;;;;;;;4.78;78.67;95711.04;105404;1257;73843;-25
2023/12/22 08:55:16;;;;;;;1.80;0.50;;;;;;;4.71;79.69;95710.61;105354;1260;74897;-25
2023/12/22 08:57:43;;;;;;;0.70;0.60;;;;;;;5.19;78.32;95702.58;105376;1257;72731;-24
2023/12/22 09:00:23;;;;;;;0.50;0.50;;;;;;;5.47;76.88;95705.13;105559;1257;61089;-24
2023/12/22 09:02:50;;;;;;;1.30;0.80;;;;;;;5.37;76.96;95717.27;105653;1261;61252;-25
2023/12/22 09:05:18;;;;;;;1.20;0.70;;;;;;;5.14;77.72;95717.06;105577;1260;73741;-24
2023/12/22 09:07:46;;;;;;;2.60;2.00;;;;;;;4.86;78.65;95712.02;105527;1260;73204;-24
2023/12/22 09:10:13;;;;;;;0.70;0.60;;;;;;;4.69;79.87;95706.77;105640;1259;73216;-24
2023/12/22 09:12:40;;;;;;;1.20;0.60;;;;;;;5.19;78.78;95705.84;105570;1260;61072;-24
2023/12/22 09:15:07;;;;;;;3.10;1.00;;;;;;;5.42;77.14;95697.79;105584;1258;61106;-24
2023/12/22 09:17:34;;;;;;;1.30;0.70;;;;;;;5.37;77.10;95696.44;105685;1260;73802;-25
2023/12/22 09:20:02;;;;;;;1.40;0.70;;;;;;;5.20;77.38;95697.45;105527;1257;74297;-24
2023/12/22 09:22:29;;;;;;;1.50;1.00;;;;;;;5.02;77.86;95697.94;105407;1260;71550;-24
2023/12/22 09:24:56;;;;;;;1.40;0.90;;;;;;;4.82;78.75;95707.73;105425;1260;61126;-25
2023/12/22 09:27:23;;;;;;;1.60;0.90;;;;;;;5.17;78.35;95713.75;105594;1260;61179;-24
2023/12/22 09:29:49;;;;;;;1.20;1.00;;;;;;;5.55;76.49;95713.79;105606;1260;73691;-24
2023/12/22 09:32:16;;;;;;;1.70;0.80;;;;;;;5.58;76.39;95709.36;105387;1260;73284;-24
2023/12/22 09:34:43;;;;;;;3.30;1.20;;;;;;;5.40;76.60;95713.15;105393;1258;72842;-24
2023/12/22 09:37:10;;;;;;;2.00;1.10;;;;;;;5.10;77.49;95722.63;105443;1260;61064;-25
2023/12/22 09:39:37;;;;;;;2.20;0.90;;;;;;;4.96;78.11;95725.22;105403;1260;61166;-25
2023/12/22 09:42:05;;;;;;;0.80;0.70;;;;;;;5.16;78.16;95726.30;105568;1260;73796;-24
2023/12/22 09:44:35;;;;;;;2.70;0.90;;;;;;;5.60;75.95;95731.33;105559;1258;74296;-25
2023/12/22 09:47:04;;;;;;;2.90;1.30;;;;;;;5.59;75.32;95730.54;105555;1258;72529;-24
2023/12/22 09:49:33;;;;;;;1.80;0.80;;;;;;;5.36;76.01;95727.98;105511;1258;61243;-25
2023/12/22 09:52:03;;;;;;;2.00;1.20;;;;;;;5.17;77.17;95731.68;105503;1257;61068;-25
2023/12/22 09:54:31;;;;;;;2.40;1.30;;;;;;;5.07;77.29;95730.04;105105;1257;74250;-25
2023/12/22 09:57:00;;;;;;;1.60;0.80;;;;;;;4.86;78.14;95734.63;105474;1257;74447;-25
2023/12/22 09:59:41;;;;;;;2.10;1.00;;;;;;;5.42;77.22;95733.04;105479;1258;72944;-25
2023/12/22 10:02:08;;;;;;;2.20;1.20;;;;;;;5.78;75.37;95729.25;105280;1257;60981;-25
2023/12/22 10:04:35;;;;;;;2.60;1.20;;;;;;;5.76;75.11;95729.06;105388;1260;61096;-24
2023/12/22 10:07:04;;;;;;;1.40;1.00;;;;;;;5.50;75.73;95723.52;105419;1257;75060;-26
2023/12/22 10:09:31;;;;;;;0.80;0.70;;;;;;;5.23;76.36;95720.39;105191;1258;72900;-24
2023/12/22 10:11:58;;;;;;;0.60;0.60;;;;;;;5.00;77.35;95722.21;105616;1257;72795;-25
2023/12/22 10:14:25;;;;;;;1.20;0.70;;;;;;;5.13;77.71;95724.94;105407;1257;61352;-24
2023/12/22 10:16:53;;;;;;;3.90;0.70;;;;;;;5.64;75.31;95716.48;105453;1261;61118;-24
2023/12/22 10:19:20;;;;;;;2.30;1.10;;;;;;;5.70;74.83;95719.25;105510;1258;75102;-24
2023/12/22 10:21:48;;;;;;;1.10;0.90;;;;;;;5.50;75.17;95717.09;105323;1257;74280;-25
2023/12/22 10:24:44;;;;;;;2.50;0.80;;;;;;;5.34;75.80;95713.83;105135;1262;72684;-25
2023/12/22 10:27:11;;;;;;;2.90;1.10;;;;;;;5.09;76.28;95715.23;105607;1258;61185;-25
2023/12/22 10:29:39;;;;;;;4.10;0.90;;;;;;;4.95;76.43;95709.48;105415;1261;61102;-25
2023/12/22 10:32:07;;;;;;;3.00;0.90;;;;;;;5.32;74.87;95705.57;105594;1257;74670;-24
2023/12/22 10:34:35;;;;;;;1.60;0.80;;;;;;;5.64;73.68;95720.23;105641;1261;74184;-25
2023/12/22 10:37:03;;;;;;;1.90;0.90;;;;;;;5.59;73.64;95720.20;105632;1260;72650;-25
2023/12/22 10:39:30;;;;;;;1.70;1.20;;;;;;;5.36;74.00;95713.89;105404;1257;61078;-25
2023/12/22 10:41:58;;;;;;;1.60;0.90;;;;;;;5.19;74.72;95719.58;105355;1260;61112;-25
2023/12/22 10:44:25;;;;;;;5.60;1.20;;;;;;;5.09;75.21;95721.89;105333;1257;73908;-25
2023/12/22 10:46:54;;;;;;;3.70;1.20;;;;;;;4.97;75.74;95717.27;105585;1258;74648;-25
2023/12/22 10:49:22;;;;;;;1.70;1.00;;;;;;;5.42;74.43;95709.33;105524;1261;72534;-25
2023/12/22 10:51:50;;;;;;;2.40;1.00;;;;;;;5.73;72.94;95704.98;105376;1256;61058;-25
2023/12/22 10:54:19;;;;;;;2.10;1.20;;;;;;;5.64;72.77;95699.91;105372;1260;61089;-25
2023/12/22 10:56:46;;;;;;;4.00;1.50;;;;;;;5.49;73.04;95705.88;105511;1257;75384;-25
2023/12/22 10:59:12;;;;;;;3.30;1.40;;;;;;;5.32;73.37;95706.25;105664;1257;74389;-25
2023/12/22 11:01:40;;;;;;;2.90;1.50;;;;;;;5.06;74.40;95705.70;105658;1257;72464;-26
2023/12/22 11:04:09;;;;;;;3.90;0.90;;;;;;;4.95;75.27;95707.14;105599;1257;61272;-25
2023/12/22 11:06:37;;;;;;;1.70;1.00;;;;;;;5.51;74.23;95710.35;105489;1257;61096;-25
2023/12/22 11:09:10;;;;;;;5.20;1.30;;;;;;;5.74;72.64;95710.81;105514;1262;73354;-25
2023/12/22 11:11:38;;;;;;;2.20;1.70;;;;;;;5.58;71.99;95717.84;105558;1257;76157;-25
2023/12/22 11:14:06;;;;;;;1.30;1.00;;;;;;;5.41;71.82;95719.36;105611;1258;72713;-27
2023/12/22 11:16:34;;;;;;;6.00;1.40;;;;;;;5.32;72.47;95725.49;105200;1263;61103;-26
2023/12/22 11:19:02;;;;;;;1.10;0.90;;;;;;;5.06;73.44;95716.73;105458;1257;61170;-26
2023/12/22 11:21:30;;;;;;;2.70;1.10;;;;;;;4.80;74.37;95712.52;105538;1257;72899;-26
2023/12/22 11:23:59;;;;;;;2.50;1.10;;;;;;;4.95;73.95;95711.62;105647;1258;75434;-26
2023/12/22 11:26:26;;;;;;;3.30;1.40;;;;;;;5.46;71.78;95707.62;105624;1257;73011;-26
2023/12/22 11:28:53;;;;;;;2.80;1.20;;;;;;;5.59;71.54;95708.95;105580;1257;61035;-26
2023/12/22 11:31:20;;;;;;;3.20;1.50;;;;;;;5.43;71.80;95706.58;105368;1257;61109;-26
2023/12/22 11:33:48;;;;;;;3.20;1.50;;;;;;;5.28;72.16;95709.05;105573;1260;72641;-26
2023/12/22 11:36:31;;;;;;;4.10;1.50;;;;;;;5.07;72.80;95711.13;105628;1257;74887;-26
2023/12/22 11:38:58;;;;;;;3.50;1.20;;;;;;;4.78;72.71;95707.32;105593;1257;74054;-27
2023/12/22 11:41:27;;;;;;;3.40;0.80;;;;;;;4.94;73.03;95706.36;105234;1258;61224;-26
2023/12/22 11:43:54;;;;;;;2.20;0.90;;;;;;;5.43;70.76;95704.13;105281;1259;61131;-26
2023/12/22 11:46:21;;;;;;;3.50;1.20;;;;;;;5.67;70.53;95705.81;105208;1258;75223;-26
2023/12/22 11:48:48;;;;;;;1.60;1.20;;;;;;;5.56;70.33;95704.66;105560;1256;75495;-26
2023/12/22 11:51:16;;;;;;;2.70;1.30;;;;;;;5.37;71.23;95705.48;105836;1254;72441;-26
2023/12/22 11:53:44;;;;;;;3.10;1.10;;;;;;;5.18;72.09;95699.27;105728;1254;61114;-27
2023/12/22 11:56:12;;;;;;;4.90;1.30;;;;;;;4.98;73.12;95700.73;105714;1256;62467;-27
2023/12/22 11:58:41;;;;;;;3.40;1.00;;;;;;;4.81;73.63;95701.91;105554;1254;75062;-27
2023/12/22 12:01:10;;;;;;;4.90;1.10;;;;;;;4.76;74.15;95706.61;105510;1259;74765;-27
2023/12/22 12:03:41;;;;;;;4.20;1.20;;;;;;;5.31;72.24;95705.35;105740;1257;73887;-26
2023/12/22 12:06:27;;;;;;;1.10;0.80;;;;;;;5.42;70.96;95700.17;105716;1257;61185;-28